Time;durP1;ratioP1;P1;durP2;ratioP2;P2;SDS_P1;SDS_P2;PMS_P1;PMS_P2;Temp;Humidity;BMP_temperature;BMP_pressure;BME280_temperature;BME280_humidity;BME280_pressure;Samples;Min_cycle;Max_cycle;Signal;HPM_P1;HPM_P2
2023/03/29 00:00:07;;;;;;;5.30;3.72;;;;;;;4.65;100.00;101677.94;5052000;28;20044;-78
2023/03/29 00:02:37;;;;;;;10.70;3.50;;;;;;;4.65;100.00;101670.13;5063759;28;20056;-78
2023/03/29 00:05:06;;;;;;;4.80;4.28;;;;;;;4.64;100.00;101665.72;5057483;28;20044;-78
2023/03/29 00:07:33;;;;;;;3.85;3.22;;;;;;;4.64;100.00;101675.28;5050644;28;20052;-77
2023/03/29 00:10:03;;;;;;;4.25;3.38;;;;;;;4.64;100.00;101676.16;5008394;28;20055;-76
2023/03/29 00:12:31;;;;;;;4.60;3.40;;;;;;;4.64;100.00;101665.72;5074944;28;20048;-77
2023/03/29 00:14:58;;;;;;;6.40;3.58;;;;;;;4.62;100.00;101663.88;5044837;28;20629;-77
2023/03/29 00:17:26;;;;;;;6.43;3.33;;;;;;;4.62;100.00;101651.69;5070020;28;20060;-77
2023/03/29 00:19:54;;;;;;;6.78;3.15;;;;;;;4.62;100.00;101658.66;5060947;28;20041;-77
2023/03/29 00:22:21;;;;;;;5.60;3.17;;;;;;;4.60;100.00;101653.38;5062423;28;20047;-77
2023/03/29 00:25:26;;;;;;;7.28;3.60;;;;;;;4.59;100.00;101641.13;5020537;28;20043;-76
2023/03/29 00:27:53;;;;;;;8.73;3.25;;;;;;;4.59;100.00;101651.56;5047523;28;20053;-76
2023/03/29 00:30:20;;;;;;;4.80;3.20;;;;;;;4.57;100.00;101645.41;5049265;28;20052;-77
2023/03/29 00:32:48;;;;;;;3.95;3.00;;;;;;;4.57;100.00;101647.13;5047848;28;20057;-76
2023/03/29 00:35:16;;;;;;;4.05;2.78;;;;;;;4.56;100.00;101635.81;5040472;28;20055;-77
2023/03/29 00:37:45;;;;;;;4.82;3.10;;;;;;;4.58;100.00;101631.53;5052272;28;20487;-76
2023/03/29 00:40:14;;;;;;;5.85;3.30;;;;;;;4.58;100.00;101628.03;5061473;28;20886;-78
2023/03/29 00:42:45;;;;;;;4.00;2.78;;;;;;;4.57;100.00;101621.91;4999740;28;20048;-76
2023/03/29 00:45:12;;;;;;;4.07;3.20;;;;;;;4.57;100.00;101624.50;5047924;28;20033;-77
2023/03/29 00:47:45;;;;;;;3.15;2.80;;;;;;;4.58;100.00;101630.66;5057033;28;20510;-77
2023/03/29 00:50:15;;;;;;;3.00;2.75;;;;;;;4.56;100.00;101622.75;5072524;28;20051;-76
2023/03/29 00:52:47;;;;;;;5.45;3.28;;;;;;;4.57;100.00;101624.50;5062360;28;20051;-78
2023/03/29 00:55:20;;;;;;;4.10;3.08;;;;;;;4.56;100.00;101620.13;5062482;28;20044;-76
2023/03/29 00:57:51;;;;;;;4.97;2.95;;;;;;;4.55;100.00;101610.50;5013402;28;20048;-76
2023/03/29 01:00:23;;;;;;;3.17;2.97;;;;;;;4.54;100.00;101600.00;5063324;28;20048;-77
2023/03/29 01:02:58;;;;;;;4.43;3.05;;;;;;;4.54;100.00;101603.53;5047549;28;20052;-76
2023/03/29 01:05:36;;;;;;;4.03;2.65;;;;;;;4.55;100.00;101612.25;5063500;28;20380;-78
2023/03/29 01:08:20;;;;;;;4.55;2.97;;;;;;;4.54;100.00;101600.00;5053346;28;20060;-78
2023/03/29 01:10:53;;;;;;;4.22;3.20;;;;;;;4.52;100.00;101601.66;5044148;28;20522;-78
2023/03/29 01:13:27;;;;;;;4.60;2.90;;;;;;;4.51;100.00;101579.91;5009034;28;20052;-76
2023/03/29 01:15:57;;;;;;;4.72;2.95;;;;;;;4.51;100.00;101582.50;5040462;28;20437;-77
2023/03/29 01:18:24;;;;;;;4.90;2.93;;;;;;;4.52;100.00;101586.91;5045570;28;20053;-78
2023/03/29 01:21:15;;;;;;;3.13;2.78;;;;;;;4.52;100.00;101588.63;5000536;28;20518;-76
2023/03/29 01:23:46;;;;;;;3.90;3.00;;;;;;;4.51;100.00;101577.28;5062015;28;20052;-76
2023/03/29 01:26:25;;;;;;;5.78;2.95;;;;;;;4.52;100.00;101581.69;5062330;28;20057;-77
2023/03/29 01:28:58;;;;;;;3.40;2.35;;;;;;;4.53;100.00;101573.03;5005187;28;20056;-76
2023/03/29 01:31:36;;;;;;;7.90;3.08;;;;;;;4.53;100.00;101573.03;5048830;28;20514;-77
2023/03/29 01:34:09;;;;;;;3.67;3.35;;;;;;;4.55;100.00;101562.66;5031637;28;20686;-77
2023/03/29 01:37:03;;;;;;;3.38;2.90;;;;;;;4.56;100.00;101564.44;5042406;28;20055;-76
2023/03/29 01:39:33;;;;;;;4.35;2.95;;;;;;;4.57;100.00;101568.81;5062318;28;20059;-77
2023/03/29 01:42:18;;;;;;;5.53;3.17;;;;;;;4.57;100.00;101566.19;5048118;28;20055;-77
2023/03/29 01:45:02;;;;;;;4.03;2.80;;;;;;;4.56;100.00;101560.09;5011027;28;20049;-78
2023/03/29 01:47:53;;;;;;;7.15;3.60;;;;;;;4.58;100.00;101561.06;5059321;28;20067;-77
2023/03/29 01:50:30;;;;;;;5.57;3.25;;;;;;;4.59;100.00;101559.31;5044385;28;20048;-78
2023/03/29 01:53:06;;;;;;;3.95;3.25;;;;;;;4.60;100.00;101561.13;5054694;28;20044;-77
2023/03/29 01:55:38;;;;;;;3.75;3.42;;;;;;;4.60;100.00;101551.56;5062069;28;20496;-77
2023/03/29 01:58:09;;;;;;;6.93;3.50;;;;;;;4.61;100.00;101560.28;5070668;28;20049;-77
2023/03/29 02:00:37;;;;;;;;;;;;;;;4.60;100.00;101548.94;5037331;28;20451;-77
2023/03/29 02:03:07;;;;;;;8.05;3.55;;;;;;;4.60;100.00;101555.91;5049784;28;19928;-77
2023/03/29 02:05:38;;;;;;;5.78;3.65;;;;;;;4.58;100.00;101553.22;5033041;28;20548;-78
2023/03/29 02:08:09;;;;;;;8.88;4.00;;;;;;;4.59;100.00;101556.72;5054344;28;20546;-77
2023/03/29 02:10:37;;;;;;;6.75;3.80;;;;;;;4.59;100.00;101548.88;5061538;28;20045;-77
2023/03/29 02:13:04;;;;;;;6.45;4.43;;;;;;;4.59;100.00;101541.94;5038870;28;20056;-76
2023/03/29 02:15:32;;;;;;;4.57;3.55;;;;;;;4.60;100.00;101532.41;5060253;28;20053;-76
2023/03/29 02:18:02;;;;;;;5.50;3.65;;;;;;;4.60;100.00;101519.34;5020406;28;20052;-77
2023/03/29 02:20:39;;;;;;;6.15;4.10;;;;;;;4.59;100.00;101515.81;5029806;28;20384;-78
2023/03/29 02:23:16;;;;;;;4.65;4.25;;;;;;;4.59;100.00;101509.72;5045358;28;20052;-77
2023/03/29 02:25:45;;;;;;;6.45;4.38;;;;;;;4.59;100.00;101505.38;5051459;28;20072;-77
2023/03/29 02:28:13;;;;;;;5.38;3.72;;;;;;;4.59;100.00;101497.56;5050149;28;20508;-77
2023/03/29 02:30:55;;;;;;;5.50;4.40;;;;;;;4.60;100.00;101493.25;5024574;28;20056;-77
2023/03/29 02:33:30;;;;;;;6.13;4.30;;;;;;;4.60;100.00;101491.50;5038553;28;20060;-77
2023/03/29 02:36:03;;;;;;;5.53;4.38;;;;;;;4.61;100.00;101489.78;5035210;28;20805;-77
2023/03/29 02:38:31;;;;;;;6.57;4.25;;;;;;;4.60;100.00;101480.19;5070953;28;20048;-77
2023/03/29 02:41:00;;;;;;;9.90;5.30;;;;;;;4.60;100.00;101483.69;5049913;28;20522;-77
2023/03/29 02:43:28;;;;;;;4.85;4.30;;;;;;;4.61;100.00;101482.88;5065421;28;20667;-77
2023/03/29 02:45:55;;;;;;;6.43;4.05;;;;;;;4.60;100.00;101478.47;5003291;28;20246;-77
2023/03/29 02:48:25;;;;;;;5.10;4.60;;;;;;;4.59;100.00;101476.66;5055457;28;20045;-77
2023/03/29 02:50:56;;;;;;;10.10;4.43;;;;;;;4.59;100.00;101476.66;5042849;28;20049;-77
2023/03/29 02:53:41;;;;;;;5.28;4.13;;;;;;;4.60;100.00;101490.63;5060027;28;20056;-77
2023/03/29 02:56:08;;;;;;;6.97;4.25;;;;;;;4.58;100.00;101472.28;5060484;28;20045;-77
2023/03/29 02:58:36;;;;;;;5.22;4.15;;;;;;;4.58;100.00;101472.28;5063212;28;20056;-76
2023/03/29 03:01:05;;;;;;;6.68;4.80;;;;;;;4.58;100.00;101467.06;5047355;28;20520;-77
2023/03/29 03:03:34;;;;;;;7.75;4.82;;;;;;;4.58;100.00;101469.69;4987104;28;20052;-77
2023/03/29 03:06:03;;;;;;;7.00;4.18;;;;;;;4.59;100.00;101465.34;5075425;28;20044;-77
2023/03/29 03:08:31;;;;;;;5.88;4.10;;;;;;;4.59;100.00;101460.13;5042946;28;20049;-77
2023/03/29 03:10:58;;;;;;;21.85;4.90;;;;;;;4.60;100.00;101454.09;5030374;28;20053;-77
2023/03/29 03:13:26;;;;;;;7.90;4.20;;;;;;;4.60;100.00;101448.88;5063086;28;20052;-77
2023/03/29 03:15:53;;;;;;;7.30;4.68;;;;;;;4.62;100.00;101455.03;5040986;28;20566;-77
2023/03/29 03:18:22;;;;;;;6.43;4.35;;;;;;;4.63;100.00;101447.25;5016708;28;20056;-78
2023/03/29 03:21:00;;;;;;;8.15;4.75;;;;;;;4.63;100.00;101441.13;5040281;28;20053;-78
2023/03/29 03:23:28;;;;;;;8.75;4.15;;;;;;;4.64;100.00;101451.63;5040985;28;20040;-76
2023/03/29 03:25:57;;;;;;;5.55;4.53;;;;;;;4.64;100.00;101451.63;5061775;28;20049;-77
2023/03/29 03:28:26;;;;;;;8.02;5.25;;;;;;;4.65;100.00;101439.47;5049352;28;20522;-77
2023/03/29 03:30:54;;;;;;;9.75;4.63;;;;;;;4.66;100.00;101439.53;5064197;28;20044;-77
2023/03/29 03:33:25;;;;;;;8.25;5.45;;;;;;;4.66;100.00;101438.66;5025046;28;20056;-77
2023/03/29 03:36:33;;;;;;;9.25;5.00;;;;;;;4.65;100.00;101427.31;5049804;28;20053;-77
2023/03/29 03:39:04;;;;;;;9.00;5.35;;;;;;;4.67;100.00;101430.88;5042260;28;20060;-77
2023/03/29 03:41:33;;;;;;;8.30;5.68;;;;;;;4.66;100.00;101439.53;5058340;28;20071;-77
2023/03/29 03:44:00;;;;;;;6.85;4.97;;;;;;;4.67;100.00;101427.38;5058078;28;20059;-77
2023/03/29 03:46:28;;;;;;;8.63;5.72;;;;;;;4.67;100.00;101436.09;5065415;28;20037;-77
2023/03/29 03:48:57;;;;;;;6.35;5.03;;;;;;;4.68;100.00;101434.38;5018978;28;20529;-76
2023/03/29 03:51:32;;;;;;;9.02;5.57;;;;;;;4.68;100.00;101424.81;5062260;28;20068;-77
2023/03/29 03:54:00;;;;;;;12.30;6.22;;;;;;;4.69;100.00;101430.94;5023407;28;20056;-77
2023/03/29 03:56:33;;;;;;;10.18;6.35;;;;;;;4.69;100.00;101425.72;5066020;28;20415;-77
2023/03/29 03:59:03;;;;;;;;;;;;;;;4.69;100.00;101423.97;5044847;28;20468;-77
2023/03/29 04:01:42;;;;;;;8.32;6.43;;;;;;;4.69;100.00;101416.16;5043840;28;19928;-77
2023/03/29 04:04:16;;;;;;;10.48;6.53;;;;;;;4.70;100.00;101422.25;5006169;28;20063;-77
2023/03/29 04:07:01;;;;;;;12.50;6.82;;;;;;;4.71;100.00;101410.06;5042972;28;20036;-77
2023/03/29 04:10:00;;;;;;;10.35;6.97;;;;;;;4.72;100.00;101409.25;5030420;28;20307;-77
2023/03/29 04:13:01;;;;;;;9.80;7.10;;;;;;;4.72;100.00;101404.03;5046953;28;20149;-77
2023/03/29 04:15:32;;;;;;;9.20;6.75;;;;;;;4.71;100.00;101397.03;5046484;28;20048;-77
2023/03/29 04:18:06;;;;;;;9.02;7.05;;;;;;;4.70;100.00;101403.97;5053110;28;20037;-77
2023/03/29 04:20:40;;;;;;;12.93;7.55;;;;;;;4.73;100.00;101398.00;4996856;28;20053;-77
2023/03/29 04:23:08;;;;;;;10.57;7.82;;;;;;;4.74;100.00;101402.38;5014854;28;20060;-77
2023/03/29 04:25:38;;;;;;;10.90;7.75;;;;;;;4.74;100.00;101394.53;5035091;28;20049;-77
2023/03/29 04:28:05;;;;;;;11.43;7.85;;;;;;;4.75;100.00;101396.31;5049951;28;20059;-77
2023/03/29 04:30:41;;;;;;;9.68;7.68;;;;;;;4.75;100.00;101396.31;5055422;28;20477;-77
2023/03/29 04:33:31;;;;;;;15.73;10.70;;;;;;;4.75;100.00;101391.97;5052279;28;20052;-78
2023/03/29 04:36:00;;;;;;;11.75;7.32;;;;;;;4.76;100.00;101388.53;5003443;28;20035;-77
2023/03/29 04:38:29;;;;;;;10.25;8.25;;;;;;;4.76;100.00;101385.03;5034656;28;20549;-76
2023/03/29 04:40:57;;;;;;;10.32;8.60;;;;;;;4.77;100.00;101379.88;5038902;28;20052;-76
2023/03/29 04:43:45;;;;;;;13.35;9.18;;;;;;;4.76;100.00;101383.28;5059233;28;20053;-78
2023/03/29 04:46:26;;;;;;;13.02;9.50;;;;;;;4.78;100.00;101380.75;5062329;28;20056;-77
2023/03/29 04:49:13;;;;;;;12.32;8.73;;;;;;;4.79;100.00;101393.88;5005058;28;20059;-77
2023/03/29 04:51:44;;;;;;;13.73;9.10;;;;;;;4.80;100.00;101382.59;5043832;28;20049;-77
2023/03/29 04:54:11;;;;;;;15.32;9.35;;;;;;;4.81;100.00;101378.25;5029236;28;20048;-77
2023/03/29 04:56:59;;;;;;;13.85;9.90;;;;;;;4.81;100.00;101380.88;5020681;28;20045;-77
2023/03/29 04:59:38;;;;;;;13.18;10.23;;;;;;;4.81;100.00;101381.75;5056135;28;20068;-77
2023/03/29 05:02:18;;;;;;;18.73;10.30;;;;;;;4.81;100.00;101373.91;5063580;28;20178;-77
2023/03/29 05:04:48;;;;;;;12.90;9.82;;;;;;;4.81;100.00;101376.53;5012385;28;20052;-77
2023/03/29 05:07:17;;;;;;;12.82;9.60;;;;;;;4.82;100.00;101378.31;5039920;28;20048;-76
2023/03/29 05:09:46;;;;;;;13.27;9.45;;;;;;;4.82;100.00;101380.00;5031589;28;20037;-77
2023/03/29 05:12:13;;;;;;;12.05;9.65;;;;;;;4.83;100.00;101373.97;5030564;28;20503;-78
2023/03/29 05:14:59;;;;;;;13.75;9.77;;;;;;;4.84;100.00;101373.16;5043400;28;20056;-78
2023/03/29 05:17:27;;;;;;;13.52;10.00;;;;;;;4.84;100.00;101373.16;5036598;28;20055;-78
2023/03/29 05:20:07;;;;;;;12.77;9.75;;;;;;;4.85;100.00;101372.31;5070308;28;20075;-76
2023/03/29 05:22:37;;;;;;;13.40;10.23;;;;;;;4.85;100.00;101373.19;4989218;28;24385;-78
2023/03/29 05:25:07;;;;;;;15.23;10.02;;;;;;;4.85;100.00;101361.84;5032730;28;20052;-77
2023/03/29 05:27:34;;;;;;;16.02;10.18;;;;;;;4.85;100.00;101365.34;5047386;28;20582;-78
2023/03/29 05:30:07;;;;;;;13.68;10.27;;;;;;;4.87;100.00;101366.28;5060721;28;20052;-78
2023/03/29 05:33:10;;;;;;;14.85;10.05;;;;;;;4.88;100.00;101368.06;5056561;28;20525;-77
2023/03/29 05:35:38;;;;;;;14.32;10.35;;;;;;;4.90;100.00;101370.75;5012851;28;20063;-76
2023/03/29 05:38:07;;;;;;;16.88;10.60;;;;;;;4.92;100.00;101363.84;5044065;28;20526;-78
2023/03/29 05:40:35;;;;;;;14.60;10.00;;;;;;;4.92;100.00;101379.53;5046784;28;20049;-77
2023/03/29 05:43:28;;;;;;;14.77;9.30;;;;;;;4.93;100.00;101373.44;5037157;28;20499;-76
2023/03/29 05:45:55;;;;;;;13.23;10.27;;;;;;;4.94;100.00;101377.84;5059054;28;20068;-77
2023/03/29 05:48:25;;;;;;;16.90;10.30;;;;;;;4.96;100.00;101368.34;5041183;28;20060;-76
2023/03/29 05:50:54;;;;;;;14.60;9.52;;;;;;;4.98;100.00;101369.28;5019044;28;20518;-76
2023/03/29 05:53:24;;;;;;;13.02;9.23;;;;;;;4.99;100.00;101371.06;5018813;28;20048;-77
2023/03/29 05:55:51;;;;;;;15.80;9.57;;;;;;;4.99;100.00;101375.38;5048192;28;21134;-76
2023/03/29 05:58:21;;;;;;;15.18;9.75;;;;;;;4.99;100.00;101371.06;5051648;28;20048;-78
2023/03/29 06:00:50;;;;;;;14.50;9.85;;;;;;;5.02;100.00;101370.28;5083049;28;20049;-78
2023/03/29 06:03:37;;;;;;;16.30;9.73;;;;;;;5.02;100.00;101365.94;5065653;28;20040;-77
2023/03/29 06:06:05;;;;;;;14.05;9.05;;;;;;;5.04;100.00;101372.09;5041146;28;20052;-78
2023/03/29 06:08:33;;;;;;;12.80;9.65;;;;;;;5.06;100.00;101374.75;5012702;28;20064;-75
2023/03/29 06:11:12;;;;;;;17.35;10.32;;;;;;;5.07;100.00;101373.94;5020830;28;20056;-75
2023/03/29 06:13:58;;;;;;;13.73;9.85;;;;;;;5.07;100.00;101377.44;5030881;28;20052;-75
2023/03/29 06:16:25;;;;;;;16.00;9.77;;;;;;;5.12;100.00;101376.69;5031004;28;20063;-74
2023/03/29 06:18:53;;;;;;;13.38;9.77;;;;;;;5.13;100.00;101378.47;5038051;28;20052;-73
2023/03/29 06:21:21;;;;;;;14.55;9.98;;;;;;;5.15;100.00;101377.69;5032465;28;20039;-74
2023/03/29 06:23:49;;;;;;;27.98;10.23;;;;;;;5.16;100.00;101374.25;5024470;28;20064;-73
2023/03/29 06:26:17;;;;;;;17.42;11.15;;;;;;;5.17;100.00;101369.91;5035463;28;20049;-73
2023/03/29 06:28:46;;;;;;;14.50;9.63;;;;;;;5.19;100.00;101368.22;5050383;28;20605;-73
2023/03/29 06:31:18;;;;;;;15.43;9.55;;;;;;;5.20;100.00;101370.91;5035573;28;20513;-74
2023/03/29 06:33:49;;;;;;;18.60;10.75;;;;;;;5.22;100.00;101374.44;5043970;28;20052;-73
2023/03/29 06:36:46;;;;;;;13.88;9.95;;;;;;;5.24;100.00;101374.50;4981596;28;20054;-74
2023/03/29 06:39:15;;;;;;;14.52;9.75;;;;;;;5.25;100.00;101379.78;5021186;28;20110;-75
2023/03/29 06:42:11;;;;;;;14.55;10.18;;;;;;;5.27;100.00;101379.81;5041803;28;23379;-75
2023/03/29 06:45:13;;;;;;;15.55;10.40;;;;;;;5.30;100.00;101386.88;5009951;28;20060;-74
2023/03/29 06:47:45;;;;;;;12.43;9.02;;;;;;;5.29;100.00;101380.75;5039598;28;20055;-74
2023/03/29 06:50:13;;;;;;;13.73;10.50;;;;;;;5.32;100.00;101386.09;5059267;28;20060;-75
2023/03/29 06:53:04;;;;;;;13.52;9.73;;;;;;;5.36;100.00;101379.25;4999375;28;20063;-74
2023/03/29 06:55:33;;;;;;;14.13;9.80;;;;;;;5.38;100.00;101373.22;5039968;28;20048;-75
2023/03/29 06:58:14;;;;;;;15.18;10.68;;;;;;;5.42;100.00;101382.94;5033995;28;20067;-75
2023/03/29 07:00:42;;;;;;;17.00;10.95;;;;;;;5.45;100.00;101385.66;5044281;28;20055;-75
2023/03/29 07:03:23;;;;;;;17.30;10.63;;;;;;;5.50;100.00;101380.59;5049080;28;20060;-75
2023/03/29 07:06:02;;;;;;;15.63;10.77;;;;;;;5.54;100.00;101376.31;5060909;28;20061;-75
2023/03/29 07:08:33;;;;;;;15.00;10.05;;;;;;;5.59;100.00;101375.63;5062906;28;20044;-75
2023/03/29 07:11:05;;;;;;;16.10;10.13;;;;;;;5.66;100.00;101361.03;5006640;28;20502;-75
2023/03/29 07:13:36;;;;;;;16.40;9.88;;;;;;;5.74;100.00;101356.94;5051348;28;20059;-75
2023/03/29 07:16:13;;;;;;;14.60;9.65;;;;;;;5.86;100.00;101354.72;5040853;28;21424;-75
2023/03/29 07:19:03;;;;;;;12.88;9.35;;;;;;;5.98;100.00;101367.28;5049631;28;20045;-75
2023/03/29 07:21:51;;;;;;;12.98;10.00;;;;;;;6.08;100.00;101365.84;5036962;28;20059;-73
2023/03/29 07:24:21;;;;;;;13.15;9.75;;;;;;;6.12;100.00;101369.44;5058866;28;20053;-75
2023/03/29 07:26:49;;;;;;;12.85;9.38;;;;;;;6.15;100.00;101357.34;5019986;28;20064;-75
2023/03/29 07:29:32;;;;;;;13.80;9.93;;;;;;;6.20;100.00;101366.22;5050547;28;20041;-75
2023/03/29 07:31:59;;;;;;;13.00;9.68;;;;;;;6.23;100.00;101353.19;5035521;28;20044;-75
2023/03/29 07:34:36;;;;;;;13.98;9.90;;;;;;;6.31;100.00;101363.00;5063831;28;20044;-74
2023/03/29 07:37:08;;;;;;;13.45;9.45;;;;;;;6.44;100.00;101366.00;5051724;28;20048;-75
2023/03/29 07:39:37;;;;;;;19.48;10.75;;;;;;;6.57;100.00;101359.41;5031408;28;20392;-77
2023/03/29 07:42:23;;;;;;;13.38;8.82;;;;;;;6.79;100.00;101370.47;5061037;28;20423;-74
2023/03/29 07:44:53;;;;;;;14.07;9.25;;;;;;;6.93;100.00;101366.47;5026940;28;20067;-75
2023/03/29 07:47:20;;;;;;;10.32;8.07;;;;;;;7.07;100.00;101379.03;5050690;28;20063;-75
2023/03/29 07:49:49;;;;;;;10.77;8.13;;;;;;;7.20;100.00;101373.28;5060583;28;20053;-77
2023/03/29 07:52:17;;;;;;;14.52;9.25;;;;;;;7.22;100.00;101375.09;5054949;28;20057;-77
2023/03/29 07:54:44;;;;;;;11.90;8.93;;;;;;;7.23;100.00;101379.47;5037858;28;20052;-76
2023/03/29 07:57:24;;;;;;;10.80;7.78;;;;;;;7.26;100.00;101380.41;4988638;28;20052;-75
2023/03/29 07:59:54;;;;;;;9.77;7.90;;;;;;;7.27;100.00;101372.59;5040192;28;20411;-75
2023/03/29 08:02:26;;;;;;;12.30;8.93;;;;;;;7.27;100.00;101377.81;5074036;28;20714;-76
2023/03/29 08:04:58;;;;;;;14.57;9.45;;;;;;;7.26;100.00;101378.69;5044940;28;20070;-76
2023/03/29 08:07:48;;;;;;;9.98;7.60;;;;;;;7.25;100.00;101376.03;5047395;28;20499;-76
2023/03/29 08:10:20;;;;;;;11.10;8.13;;;;;;;7.23;100.00;101370.72;5060402;28;20055;-76
2023/03/29 08:13:06;;;;;;;11.20;8.15;;;;;;;7.22;100.00;101368.94;5001337;28;20507;-76
2023/03/29 08:15:47;;;;;;;8.80;7.85;;;;;;;7.18;100.00;101365.41;5039640;28;20067;-77
2023/03/29 08:18:25;;;;;;;10.15;8.20;;;;;;;7.16;100.00;101371.41;5014650;28;20064;-74
2023/03/29 08:20:53;;;;;;;10.35;7.82;;;;;;;7.15;100.00;101369.66;5023576;28;20458;-78
2023/03/29 08:23:20;;;;;;;9.60;7.65;;;;;;;7.17;100.00;101366.22;5044418;28;20279;-77
2023/03/29 08:26:09;;;;;;;20.05;9.45;;;;;;;7.22;100.00;101353.22;5044545;28;20117;-77
2023/03/29 08:28:38;;;;;;;12.23;8.82;;;;;;;7.27;100.00;101354.22;4989327;28;20044;-77
2023/03/29 08:31:08;;;;;;;10.38;7.10;;;;;;;7.35;100.00;101362.28;5015248;28;20052;-78
2023/03/29 08:33:41;;;;;;;8.73;7.88;;;;;;;7.39;100.00;101365.03;5043968;28;20052;-78
2023/03/29 08:36:26;;;;;;;14.10;7.70;;;;;;;7.40;100.00;101372.03;5057295;28;20103;-77
2023/03/29 08:38:56;;;;;;;10.68;7.45;;;;;;;7.44;100.00;101365.13;5059995;28;21458;-77
2023/03/29 08:41:48;;;;;;;11.23;7.43;;;;;;;7.51;100.00;101368.81;5050353;28;20491;-77
2023/03/29 08:44:27;;;;;;;10.65;8.38;;;;;;;7.62;100.00;101359.47;5021976;28;20057;-78
2023/03/29 08:47:12;;;;;;;11.75;7.35;;;;;;;7.76;100.00;101352.78;5044265;28;20044;-77
2023/03/29 08:49:49;;;;;;;10.23;7.55;;;;;;;7.83;100.00;101348.56;5057400;28;20048;-78
2023/03/29 08:52:30;;;;;;;14.10;8.15;;;;;;;7.85;100.00;101348.59;5060937;28;20503;-80
2023/03/29 08:55:02;;;;;;;11.65;7.18;;;;;;;7.90;100.00;101350.47;5077158;28;20399;-78
2023/03/29 08:57:33;;;;;;;11.18;7.45;;;;;;;7.96;100.00;101354.97;5050377;28;20056;-76
2023/03/29 09:00:09;;;;;;;13.85;7.05;;;;;;;7.99;100.00;101344.53;5023929;28;20048;-77
2023/03/29 09:02:40;;;;;;;9.40;6.90;;;;;;;8.04;100.00;101356.03;5048091;28;20044;-77
2023/03/29 09:05:24;;;;;;;10.67;7.47;;;;;;;8.06;100.00;101348.19;5045213;28;20056;-79
2023/03/29 09:08:15;;;;;;;10.35;7.82;;;;;;;8.10;100.00;101339.50;5063704;28;20071;-78
2023/03/29 09:10:52;;;;;;;11.10;7.38;;;;;;;8.15;100.00;101333.50;5035500;28;20048;-76
2023/03/29 09:13:29;;;;;;;9.52;7.32;;;;;;;8.18;100.00;101330.97;5025099;28;20075;-77
2023/03/29 09:16:11;;;;;;;14.55;7.78;;;;;;;8.26;100.00;101338.09;5001638;28;20052;-76
2023/03/29 09:19:15;;;;;;;14.10;7.60;;;;;;;8.32;100.00;101331.22;5015623;28;20052;-77
2023/03/29 09:21:45;;;;;;;9.30;7.45;;;;;;;8.40;100.00;101334.00;5053838;28;20051;-77
2023/03/29 09:24:51;;;;;;;9.57;7.47;;;;;;;8.48;100.00;101327.19;5053125;28;20044;-76
2023/03/29 09:27:36;;;;;;;11.27;7.95;;;;;;;8.53;100.00;101328.16;5035794;28;20044;-78
2023/03/29 09:30:49;;;;;;;11.48;7.78;;;;;;;8.61;100.00;101316.94;5021934;28;20522;-77
2023/03/29 09:33:43;;;;;;;16.25;8.90;;;;;;;8.67;100.00;101317.03;5010826;28;20059;-79
2023/03/29 09:36:33;;;;;;;10.35;7.68;;;;;;;8.72;100.00;101310.13;5064646;28;20407;-79
2023/03/29 09:39:02;;;;;;;9.68;7.65;;;;;;;8.78;100.00;101305.84;5062251;28;20060;-79
2023/03/29 09:41:40;;;;;;;11.80;7.82;;;;;;;8.83;100.00;101311.22;5022522;28;20060;-78
2023/03/29 09:44:12;;;;;;;15.07;8.70;;;;;;;8.91;100.00;101313.97;5054078;28;20045;-78
2023/03/29 09:47:05;;;;;;;14.35;8.50;;;;;;;8.99;100.00;101296.56;5034954;28;20052;-78
2023/03/29 09:49:42;;;;;;;14.55;8.48;;;;;;;9.04;100.00;101299.31;5060202;28;20143;-79
2023/03/29 09:52:15;;;;;;;18.17;9.45;;;;;;;9.11;100.00;101303.78;5061680;28;20063;-78
2023/03/29 09:54:51;;;;;;;13.52;8.90;;;;;;;9.21;100.00;101295.19;5036990;28;20052;-78
2023/03/29 09:57:21;;;;;;;16.95;8.50;;;;;;;9.28;100.00;101302.31;5057376;28;20052;-78
2023/03/29 09:59:50;;;;;;;14.55;9.15;;;;;;;9.40;100.00;101299.00;5035236;28;20060;-78
2023/03/29 10:02:19;;;;;;;12.55;8.70;;;;;;;9.53;100.00;101294.81;4993624;28;20060;-78
2023/03/29 10:04:54;;;;;;;17.23;8.88;;;;;;;9.68;100.00;101284.50;5032290;28;20045;-80
2023/03/29 10:07:22;;;;;;;13.23;8.48;;;;;;;9.76;100.00;101276.69;5076032;28;20040;-79
2023/03/29 10:09:55;;;;;;;15.02;9.07;;;;;;;9.87;100.00;101282.13;5051932;28;20048;-78
2023/03/29 10:12:24;;;;;;;17.30;9.60;;;;;;;9.93;100.00;101304.13;5030601;28;20048;-77
2023/03/29 10:14:53;;;;;;;16.75;9.20;;;;;;;9.92;100.00;101293.56;5062028;28;20041;-77
2023/03/29 10:17:23;;;;;;;14.93;9.52;;;;;;;9.97;100.00;101298.91;5006256;28;20152;-78
2023/03/29 10:20:18;;;;;;;15.55;9.90;;;;;;;10.00;100.00;101305.09;5056322;28;20044;-77
2023/03/29 10:22:48;;;;;;;21.15;9.15;;;;;;;10.01;100.00;101308.59;5051962;28;20056;-79
2023/03/29 10:25:17;;;;;;;14.48;8.70;;;;;;;10.00;100.00;101312.09;5060527;28;20075;-79
2023/03/29 10:27:46;;;;;;;14.82;9.63;;;;;;;9.96;100.00;101321.69;5028458;28;20051;-80
2023/03/29 10:30:22;;;;;;;17.70;9.02;;;;;;;9.98;100.00;101311.19;5064225;28;20048;-79
2023/03/29 10:32:58;;;;;;;15.02;8.68;;;;;;;10.00;100.00;101313.00;5027645;28;20564;-79
2023/03/29 10:35:38;;;;;;;14.93;9.15;;;;;;;10.00;100.00;101309.47;5043709;28;20060;-79
2023/03/29 10:38:12;;;;;;;11.75;8.88;;;;;;;10.00;100.00;101305.09;5036160;28;20775;-79
2023/03/29 10:40:46;;;;;;;13.57;9.05;;;;;;;9.96;100.00;101305.91;5060248;28;20041;-79
2023/03/29 10:43:25;;;;;;;14.15;9.10;;;;;;;9.97;100.00;101307.69;5040323;28;20057;-79
2023/03/29 10:46:06;;;;;;;13.00;8.45;;;;;;;9.95;100.00;101304.16;5062477;28;20044;-78
2023/03/29 10:48:35;;;;;;;16.85;8.82;;;;;;;9.86;100.00;101309.28;5010689;28;20048;-78
2023/03/29 10:51:04;;;;;;;17.00;8.82;;;;;;;9.83;100.00;101322.41;5049994;28;20702;-78
2023/03/29 10:53:35;;;;;;;16.77;9.82;;;;;;;9.79;100.00;101315.31;5048199;28;20507;-78
2023/03/29 10:56:06;;;;;;;12.55;8.35;;;;;;;9.78;100.00;101322.34;5062456;28;20234;-79
2023/03/29 10:58:52;;;;;;;15.20;8.73;;;;;;;9.75;100.00;101325.84;5047731;28;20151;-78
2023/03/29 11:01:53;;;;;;;15.73;9.02;;;;;;;9.70;100.00;101330.13;5059433;28;20056;-79
2023/03/29 11:04:27;;;;;;;15.13;9.25;;;;;;;9.61;100.00;101331.75;5007547;28;20036;-79
2023/03/29 11:07:21;;;;;;;14.38;9.23;;;;;;;9.64;100.00;101332.69;5055889;28;20048;-78
2023/03/29 11:10:18;;;;;;;16.05;8.60;;;;;;;9.62;100.00;101321.25;5065286;28;20064;-78
2023/03/29 11:12:54;;;;;;;13.13;8.52;;;;;;;9.67;100.00;101314.28;5060070;28;20048;-77
2023/03/29 11:15:44;;;;;;;17.10;9.23;;;;;;;9.70;100.00;101303.81;5048675;28;20502;-77
2023/03/29 11:18:26;;;;;;;12.80;9.37;;;;;;;9.81;100.00;101308.34;5031952;28;20064;-78
2023/03/29 11:21:22;;;;;;;13.82;8.70;;;;;;;9.92;100.00;101312.91;5050222;28;20072;-79
2023/03/29 11:24:14;;;;;;;13.13;9.10;;;;;;;10.05;100.00;101310.41;5054103;28;20053;-77
2023/03/29 11:27:01;;;;;;;15.38;9.45;;;;;;;10.19;100.00;101295.69;5050032;28;20087;-78
2023/03/29 11:30:01;;;;;;;14.82;9.32;;;;;;;10.39;100.00;101287.16;5045992;28;20044;-79
2023/03/29 11:32:51;;;;;;;11.23;8.55;;;;;;;10.57;100.00;101287.34;5058423;28;20049;-80
2023/03/29 11:35:33;;;;;;;12.70;8.63;;;;;;;10.70;100.00;101280.44;5007758;28;20052;-79
2023/03/29 11:38:04;;;;;;;15.35;9.52;;;;;;;10.83;100.00;101287.59;5040366;28;20036;-79
2023/03/29 11:41:02;;;;;;;11.77;8.57;;;;;;;10.93;100.00;101286.81;5058248;28;20071;-78
2023/03/29 11:43:36;;;;;;;14.68;9.35;;;;;;;11.03;100.00;101276.34;5035266;28;20087;-79
2023/03/29 11:46:19;;;;;;;12.50;9.35;;;;;;;11.14;100.00;101272.03;5045707;28;20048;-78
2023/03/29 11:49:00;;;;;;;11.52;8.63;;;;;;;11.20;100.00;101273.84;5056781;28;20036;-78
2023/03/29 11:51:31;;;;;;;14.45;8.40;;;;;;;11.25;100.00;101270.34;5020477;28;20040;-78
2023/03/29 11:54:15;;;;;;;13.38;8.98;;;;;;;11.31;100.00;101277.44;5032797;28;20052;-79
2023/03/29 11:57:00;;;;;;;12.43;8.88;;;;;;;11.41;100.00;101281.88;5030733;28;20052;-78